createdAt,value
2019-02-02T00:01:21.875Z,25.90
2019-02-02T00:03:51.195Z,28.60
2019-02-02T00:06:20.416Z,29.23
2019-02-02T00:08:51.254Z,27.63
2019-02-02T00:11:20.579Z,57.63
2019-02-02T00:13:49.896Z,28.60
2019-02-02T00:16:19.153Z,33.90
2019-02-02T00:18:48.561Z,29.60
2019-02-02T00:21:17.955Z,26.63
2019-02-02T00:23:47.303Z,24.37
2019-02-02T00:26:16.551Z,30.60
2019-02-02T00:28:45.741Z,26.37
2019-02-02T00:31:15.176Z,26.50
2019-02-02T00:33:44.450Z,28.93
2019-02-02T00:36:13.809Z,25.17
2019-02-02T00:38:43.196Z,26.53
2019-02-02T00:41:12.488Z,25.00
2019-02-02T00:43:42.799Z,25.57
2019-02-02T00:46:12.185Z,26.47
2019-02-02T00:48:41.538Z,28.67
2019-02-02T00:51:10.911Z,26.20
2019-02-02T00:53:40.191Z,26.33
2019-02-02T00:56:09.492Z,26.70
2019-02-02T00:58:38.762Z,26.33
2019-02-02T01:01:08.190Z,25.37
2019-02-02T01:03:37.613Z,25.57
2019-02-02T01:06:06.959Z,27.80
2019-02-02T01:08:36.263Z,25.33
2019-02-02T01:11:07.403Z,25.47
2019-02-02T01:13:37.571Z,26.17
2019-02-02T01:16:06.867Z,26.00
2019-02-02T01:18:36.112Z,25.57
2019-02-02T01:21:05.429Z,26.30
2019-02-02T01:23:34.796Z,25.47
2019-02-02T01:26:04.142Z,25.40
2019-02-02T01:28:33.349Z,25.70
2019-02-02T01:31:02.667Z,26.53
2019-02-02T01:33:31.996Z,26.90
2019-02-02T01:36:01.376Z,28.00
2019-02-02T01:38:30.660Z,25.57
2019-02-02T01:40:59.924Z,26.07
2019-02-02T01:43:29.260Z,25.33
2019-02-02T01:45:58.565Z,25.33
2019-02-02T01:48:27.960Z,24.87
2019-02-02T01:50:57.252Z,26.87
2019-02-02T01:53:26.570Z,25.00
2019-02-02T01:55:55.913Z,25.23
2019-02-02T01:58:25.232Z,23.53
2019-02-02T02:00:54.618Z,24.27
2019-02-02T02:03:24.786Z,25.47
2019-02-02T02:05:54.115Z,25.60
2019-02-02T02:08:23.410Z,24.73
2019-02-02T02:10:52.718Z,25.10
2019-02-02T02:13:21.979Z,23.90
2019-02-02T02:15:51.258Z,26.80
2019-02-02T02:18:20.563Z,24.87
2019-02-02T02:20:49.997Z,26.00
2019-02-02T02:23:19.192Z,23.93
2019-02-02T02:25:48.480Z,24.57
2019-02-02T02:28:27.844Z,25.87
2019-02-02T02:30:48.610Z,26.07
2019-02-02T02:33:17.813Z,25.07
2019-02-02T02:35:47.151Z,24.40
2019-02-02T02:38:16.423Z,24.23
2019-02-02T02:40:45.698Z,23.90
2019-02-02T02:43:15.035Z,25.70
2019-02-02T02:45:44.546Z,24.10
2019-02-02T02:48:13.819Z,26.27
2019-02-02T02:50:43.082Z,25.17
2019-02-02T02:53:12.366Z,24.27
2019-02-02T02:55:41.617Z,25.57
2019-02-02T02:58:10.834Z,24.77
2019-02-02T03:00:40.062Z,24.27
2019-02-02T03:03:09.516Z,25.90
2019-02-02T03:05:38.755Z,25.17
2019-02-02T03:08:08.132Z,25.03
2019-02-02T03:10:37.414Z,25.93
2019-02-02T03:13:07.936Z,24.60
2019-02-02T03:15:37.183Z,25.57
2019-02-02T03:18:06.916Z,27.60
2019-02-02T03:20:36.079Z,26.33
2019-02-02T03:23:05.258Z,24.97
2019-02-02T03:25:34.502Z,25.90
2019-02-02T03:28:03.877Z,25.57
2019-02-02T03:30:33.208Z,25.47
2019-02-02T03:33:02.436Z,26.00
2019-02-02T03:35:31.828Z,24.97
2019-02-02T03:38:01.107Z,25.37
2019-02-02T03:40:30.360Z,24.27
2019-02-02T03:42:59.674Z,24.83
2019-02-02T03:45:28.968Z,24.87
2019-02-02T03:47:58.230Z,24.40
2019-02-02T03:50:27.517Z,24.93
2019-02-02T03:52:56.932Z,24.13
2019-02-02T03:55:26.148Z,24.17
2019-02-02T03:57:55.417Z,25.17
2019-02-02T04:00:24.627Z,25.67
2019-02-02T04:02:53.947Z,24.57
2019-02-02T04:05:27.945Z,25.50
2019-02-02T04:07:57.341Z,24.70
2019-02-02T04:10:26.685Z,23.97
2019-02-02T04:12:56.009Z,23.27
2019-02-02T04:15:27.563Z,24.20
2019-02-02T04:17:56.878Z,23.70
2019-02-02T04:20:26.047Z,26.47
2019-02-02T04:22:55.304Z,24.90
2019-02-02T04:25:24.719Z,24.50
2019-02-02T04:27:53.977Z,25.03
2019-02-02T04:30:25.046Z,25.07
2019-02-02T04:32:55.066Z,24.67
2019-02-02T04:35:24.582Z,23.87
2019-02-02T04:37:54.006Z,24.73
2019-02-02T04:40:23.333Z,24.93
2019-02-02T04:42:52.610Z,25.43
2019-02-02T04:45:21.931Z,25.03
2019-02-02T04:47:51.484Z,24.10
2019-02-02T04:50:20.990Z,23.87
2019-02-02T04:52:50.339Z,24.90
2019-02-02T04:55:20.015Z,25.30
2019-02-02T04:57:49.229Z,25.80
2019-02-02T05:00:20.961Z,25.73
2019-02-02T05:02:50.168Z,25.67
2019-02-02T05:05:19.714Z,25.33
2019-02-02T05:07:49.104Z,26.07
2019-02-02T05:10:19.993Z,26.40
2019-02-02T05:12:49.742Z,25.73
2019-02-02T05:15:19.356Z,25.97
2019-02-02T05:17:48.676Z,26.30
2019-02-02T05:20:18.100Z,26.67
2019-02-02T05:22:47.907Z,26.80
2019-02-02T05:25:17.472Z,26.63
2019-02-02T05:27:46.721Z,29.73
2019-02-02T05:30:19.010Z,27.03
2019-02-02T05:32:48.487Z,29.97
2019-02-02T05:35:17.779Z,27.43
2019-02-02T05:37:46.991Z,27.07
2019-02-02T05:40:17.207Z,28.20
2019-02-02T05:42:46.381Z,29.40
2019-02-02T05:45:19.210Z,30.53
2019-02-02T05:47:48.440Z,28.27
2019-02-02T05:50:19.456Z,30.40
2019-02-02T05:52:48.619Z,29.53
2019-02-02T05:55:18.265Z,29.33
2019-02-02T05:57:47.554Z,29.27
2019-02-02T06:00:33.709Z,31.77
2019-02-02T06:03:02.974Z,29.80
2019-02-02T06:05:32.199Z,30.13
2019-02-02T06:08:01.416Z,30.77
2019-02-02T06:10:30.593Z,32.90
2019-02-02T06:12:59.829Z,32.03
2019-02-02T06:15:29.253Z,32.40
2019-02-02T06:17:58.534Z,31.03
2019-02-02T06:20:27.758Z,31.83
2019-02-02T06:22:57.048Z,34.23
2019-02-02T06:25:26.476Z,31.70
2019-02-02T06:27:55.802Z,31.37
2019-02-02T06:30:25.509Z,30.33
2019-02-02T06:32:54.744Z,30.70
2019-02-02T06:35:24.053Z,31.87
2019-02-02T06:37:53.323Z,31.30
2019-02-02T06:40:22.509Z,32.77
2019-02-02T06:42:51.858Z,34.07
2019-02-02T06:45:24.464Z,32.43
2019-02-02T06:47:54.372Z,33.03
2019-02-02T06:50:23.733Z,34.57
2019-02-02T06:52:52.985Z,33.40
2019-02-02T06:55:22.271Z,34.90
2019-02-02T06:57:51.535Z,35.73
2019-02-02T07:00:22.575Z,33.63
2019-02-02T07:02:51.784Z,33.60
2019-02-02T07:05:21.134Z,34.40
2019-02-02T07:07:50.333Z,34.43
2019-02-02T07:10:24.013Z,34.50
2019-02-02T07:12:53.207Z,37.10
2019-02-02T07:15:24.659Z,33.43
2019-02-02T07:17:53.896Z,33.30
2019-02-02T07:20:23.122Z,34.53
2019-02-02T07:22:52.484Z,34.87
2019-02-02T07:25:21.830Z,34.27
2019-02-02T07:27:51.132Z,34.60
2019-02-02T07:30:28.886Z,35.63
2019-02-02T07:32:52.597Z,34.53
2019-02-02T07:35:22.443Z,34.43
2019-02-02T07:37:51.654Z,36.07
2019-02-02T07:40:21.060Z,35.17
2019-02-02T07:42:50.635Z,34.80
2019-02-02T07:45:25.342Z,34.47
2019-02-02T07:47:54.649Z,35.67
2019-02-02T07:50:23.895Z,36.43
2019-02-02T07:52:53.296Z,35.17
2019-02-02T07:55:22.876Z,36.53
2019-02-02T07:57:52.214Z,36.53
2019-02-02T08:00:40.266Z,35.80
2019-02-02T08:03:01.804Z,36.93
2019-02-02T08:05:31.155Z,34.83
2019-02-02T08:08:00.544Z,35.43
2019-02-02T08:10:29.834Z,35.57
2019-02-02T08:12:59.191Z,35.17
2019-02-02T08:15:30.360Z,34.43
2019-02-02T08:17:59.699Z,36.03
2019-02-02T08:20:29.059Z,34.80
2019-02-02T08:22:58.420Z,32.67
2019-02-02T08:25:27.775Z,33.20
2019-02-02T08:27:57.475Z,32.87
2019-02-02T08:30:29.029Z,33.07
2019-02-02T08:32:58.295Z,33.37
2019-02-02T08:35:27.666Z,32.93
2019-02-02T08:37:56.901Z,31.43
2019-02-02T08:40:26.301Z,33.07
2019-02-02T08:42:55.607Z,33.17
2019-02-02T08:45:24.903Z,33.53
2019-02-02T08:47:54.500Z,35.03
2019-02-02T08:50:35.479Z,32.97
2019-02-02T08:53:05.076Z,34.80
2019-02-02T08:55:34.477Z,35.17
2019-02-02T08:58:03.971Z,34.07
2019-02-02T09:00:33.433Z,35.00
2019-02-02T09:03:02.833Z,34.70
2019-02-02T09:05:32.181Z,36.20
2019-02-02T09:08:01.499Z,36.37
2019-02-02T09:10:30.767Z,35.87
2019-02-02T09:13:00.089Z,35.20
2019-02-02T09:15:29.369Z,34.57
2019-02-02T09:17:58.633Z,34.97
2019-02-02T09:20:27.973Z,35.77
2019-02-02T09:23:04.204Z,35.93
2019-02-02T09:25:28.474Z,36.70
2019-02-02T09:27:57.733Z,35.17
2019-02-02T09:30:29.483Z,34.73
2019-02-02T09:32:58.771Z,34.73
2019-02-02T09:35:28.176Z,38.07
2019-02-02T09:37:57.642Z,37.33
2019-02-02T09:40:26.855Z,38.50
2019-02-02T09:42:56.237Z,42.30
2019-02-02T09:45:25.705Z,41.20
2019-02-02T09:47:55.067Z,43.30
2019-02-02T09:50:25.048Z,40.73
2019-02-02T09:52:54.391Z,72.03
2019-02-02T09:55:24.164Z,38.47
2019-02-02T09:57:59.291Z,39.57
2019-02-02T10:00:30.318Z,40.30
2019-02-02T10:02:59.688Z,38.47
2019-02-02T10:05:29.568Z,114.50
2019-02-02T10:07:58.827Z,45.63
2019-02-02T10:10:29.791Z,62.23
2019-02-02T10:12:59.134Z,56.87
2019-02-02T10:15:28.371Z,35.33
2019-02-02T10:17:57.568Z,40.60
2019-02-02T10:20:28.261Z,32.63
2019-02-02T10:22:58.151Z,38.77
2019-02-02T10:25:29.141Z,34.47
2019-02-02T10:27:58.415Z,35.20
2019-02-02T10:30:30.072Z,42.50
2019-02-02T10:32:59.698Z,36.20
2019-02-02T10:35:29.221Z,37.60
2019-02-02T10:37:58.430Z,92.63
2019-02-02T10:40:29.865Z,33.47
2019-02-02T10:42:58.671Z,34.93
2019-02-02T10:45:27.927Z,31.70
2019-02-02T10:47:57.133Z,31.17
2019-02-02T10:50:27.238Z,33.67
2019-02-02T10:52:58.213Z,33.37
2019-02-02T10:55:27.534Z,31.90
2019-02-02T10:57:56.838Z,33.23
2019-02-02T11:00:28.611Z,30.53
2019-02-02T11:02:58.267Z,33.10
2019-02-02T11:05:28.972Z,31.17
2019-02-02T11:07:58.464Z,33.00
2019-02-02T11:10:29.649Z,31.70
2019-02-02T11:12:59.337Z,32.90
2019-02-02T11:15:28.760Z,34.00
2019-02-02T11:17:58.183Z,34.53
2019-02-02T11:20:29.944Z,32.90
2019-02-02T11:22:59.251Z,32.13
2019-02-02T11:25:29.026Z,33.90
2019-02-02T11:27:58.402Z,33.67
2019-02-02T11:30:28.616Z,33.27
2019-02-02T11:32:58.040Z,33.23
2019-02-02T11:35:27.422Z,34.00
2019-02-02T11:37:56.851Z,33.63
2019-02-02T11:40:29.197Z,34.00
2019-02-02T11:42:59.089Z,32.53
2019-02-02T11:45:28.836Z,33.90
2019-02-02T11:47:58.161Z,33.23
2019-02-02T11:50:27.450Z,33.23
2019-02-02T11:52:56.767Z,34.10
2019-02-02T11:55:26.243Z,34.40
2019-02-02T11:57:55.586Z,33.73
2019-02-02T12:00:30.056Z,32.53
2019-02-02T12:02:59.383Z,32.77
2019-02-02T12:05:28.765Z,32.33
2019-02-02T12:07:58.395Z,33.87
2019-02-02T12:10:28.494Z,32.63
2019-02-02T12:12:57.804Z,33.13
2019-02-02T12:15:27.487Z,33.07
2019-02-02T12:17:56.741Z,31.90
2019-02-02T12:20:26.088Z,31.43
2019-02-02T12:22:55.793Z,31.83
2019-02-02T12:25:25.217Z,31.87
2019-02-02T12:27:54.524Z,31.77
2019-02-02T12:30:26.158Z,32.10
2019-02-02T12:32:55.554Z,31.07
2019-02-02T12:35:25.711Z,30.63
2019-02-02T12:37:55.018Z,31.47
2019-02-02T12:40:25.073Z,32.30
2019-02-02T12:42:54.437Z,32.13
2019-02-02T12:45:29.531Z,31.77
2019-02-02T12:47:58.828Z,32.43
2019-02-02T12:50:28.078Z,30.93
2019-02-02T12:52:57.375Z,34.13
2019-02-02T12:55:26.609Z,38.03
2019-02-02T12:57:55.936Z,36.80
2019-02-02T13:00:25.210Z,32.37
2019-02-02T13:02:54.512Z,26.90
2019-02-02T13:05:24.176Z,24.70
2019-02-02T13:07:53.547Z,25.47
2019-02-02T13:10:25.086Z,25.13
2019-02-02T13:12:54.542Z,25.90
2019-02-02T13:15:23.790Z,25.50
2019-02-02T13:17:53.062Z,26.17
2019-02-02T13:20:22.316Z,26.80
2019-02-02T13:22:51.537Z,26.97
2019-02-02T13:25:21.713Z,27.57
2019-02-02T13:27:50.975Z,28.23
2019-02-02T13:30:23.074Z,27.50
2019-02-02T13:32:52.419Z,27.67
2019-02-02T13:35:22.251Z,27.93
2019-02-02T13:37:51.560Z,29.17
2019-02-02T13:40:21.787Z,28.07
2019-02-02T13:42:51.016Z,28.47
2019-02-02T13:45:20.670Z,28.30
2019-02-02T13:47:55.845Z,28.00
2019-02-02T13:50:25.121Z,28.00
2019-02-02T13:52:55.544Z,28.80
2019-02-02T13:55:24.883Z,28.27
2019-02-02T13:57:54.357Z,28.87
2019-02-02T14:00:26.233Z,29.23
2019-02-02T14:03:02.892Z,29.30
2019-02-02T14:05:26.661Z,28.30
2019-02-02T14:07:56.220Z,27.60
2019-02-02T14:10:27.814Z,27.47
2019-02-02T14:12:57.039Z,27.57
2019-02-02T14:15:26.377Z,29.70
2019-02-02T14:17:55.763Z,30.47
2019-02-02T14:20:25.061Z,28.43
2019-02-02T14:22:54.486Z,27.23
2019-02-02T14:25:23.831Z,28.57
2019-02-02T14:27:53.117Z,27.90
2019-02-02T14:30:24.266Z,27.80
2019-02-02T14:32:54.762Z,28.13
2019-02-02T14:35:26.247Z,26.67
2019-02-02T14:37:55.753Z,27.53
2019-02-02T14:40:25.071Z,27.00
2019-02-02T14:42:54.351Z,27.67
2019-02-02T14:45:27.218Z,28.67
2019-02-02T14:47:55.793Z,29.07
2019-02-02T14:50:25.587Z,29.90
2019-02-02T14:52:54.865Z,30.73
2019-02-02T14:55:26.872Z,30.87
2019-02-02T14:57:56.289Z,30.37
2019-02-02T15:00:27.354Z,30.80
2019-02-02T15:02:56.803Z,31.07
2019-02-02T15:05:26.100Z,33.20
2019-02-02T15:07:55.516Z,35.27
2019-02-02T15:10:25.422Z,35.50
2019-02-02T15:12:54.773Z,39.47
2019-02-02T15:15:24.047Z,38.60
2019-02-02T15:17:53.346Z,36.67
2019-02-02T15:20:28.039Z,34.80
2019-02-02T15:22:57.302Z,34.53
2019-02-02T15:25:26.572Z,37.63
2019-02-02T15:27:55.881Z,39.10
2019-02-02T15:30:26.274Z,38.53
2019-02-02T15:32:55.588Z,39.97
2019-02-02T15:35:24.779Z,40.60
2019-02-02T15:37:54.130Z,37.80
2019-02-02T15:40:23.732Z,38.67
2019-02-02T15:42:53.036Z,37.60
2019-02-02T15:45:23.768Z,35.00
2019-02-02T15:47:53.140Z,35.93
2019-02-02T15:50:22.350Z,36.20
2019-02-02T15:52:51.623Z,35.93
2019-02-02T15:55:22.795Z,39.15
2019-02-02T15:57:52.270Z,36.27
2019-02-02T16:00:29.919Z,37.50
2019-02-02T16:02:59.244Z,36.83
2019-02-02T16:05:28.507Z,36.70
2019-02-02T16:07:59.287Z,35.90
2019-02-02T16:10:29.847Z,36.13
2019-02-02T16:13:05.471Z,36.83
2019-02-02T16:15:34.828Z,37.03
2019-02-02T16:18:04.788Z,36.67
2019-02-02T16:20:36.607Z,35.30
2019-02-02T16:23:06.513Z,37.13
2019-02-02T16:25:35.903Z,37.40
2019-02-02T16:28:05.549Z,37.53
2019-02-02T16:30:34.952Z,40.07
2019-02-02T16:33:04.608Z,50.75
2019-02-02T16:35:34.031Z,57.60
2019-02-02T16:38:03.310Z,50.13
2019-02-02T16:40:32.686Z,42.50
2019-02-02T16:43:01.971Z,49.53
2019-02-02T16:45:31.717Z,68.20
2019-02-02T16:48:00.996Z,62.67
2019-02-02T16:50:30.422Z,49.67
2019-02-02T16:52:59.702Z,45.70
2019-02-02T16:55:30.154Z,44.03
2019-02-02T16:57:59.308Z,44.10
2019-02-02T17:00:30.914Z,43.60
2019-02-02T17:03:00.181Z,42.50
2019-02-02T17:05:29.503Z,41.10
2019-02-02T17:07:58.928Z,41.40
2019-02-02T17:10:30.269Z,46.00
2019-02-02T17:12:59.708Z,48.63
2019-02-02T17:15:29.010Z,50.00
2019-02-02T17:17:58.308Z,51.47
2019-02-02T17:20:33.223Z,54.97
2019-02-02T17:23:02.586Z,56.83
2019-02-02T17:25:31.835Z,58.07
2019-02-02T17:28:01.223Z,63.80
2019-02-02T17:30:30.448Z,68.07
2019-02-02T17:33:01.875Z,68.00
2019-02-02T17:35:31.204Z,71.03
2019-02-02T17:38:00.544Z,93.53
2019-02-02T17:40:29.881Z,79.93
2019-02-02T17:42:59.152Z,80.90
2019-02-02T17:45:28.665Z,75.90
2019-02-02T17:47:58.005Z,80.63
2019-02-02T17:50:27.422Z,79.70
2019-02-02T17:52:56.996Z,71.87
2019-02-02T17:55:26.722Z,86.20
2019-02-02T17:57:56.164Z,89.03
2019-02-02T18:00:53.507Z,77.50
2019-02-02T18:03:22.882Z,89.57
2019-02-02T18:05:52.187Z,80.30
2019-02-02T18:08:21.908Z,91.80
2019-02-02T18:10:51.310Z,85.57
2019-02-02T18:13:20.714Z,89.23
2019-02-02T18:15:50.088Z,77.50
2019-02-02T18:18:19.343Z,77.17
2019-02-02T18:20:48.552Z,77.80
2019-02-02T18:23:18.444Z,75.40
2019-02-02T18:25:48.108Z,73.63
2019-02-02T18:28:17.288Z,73.10
2019-02-02T18:30:46.718Z,72.97
2019-02-02T18:33:16.051Z,72.67
2019-02-02T18:35:45.519Z,67.13
2019-02-02T18:38:14.825Z,63.97
2019-02-02T18:40:44.516Z,60.73
2019-02-02T18:43:13.760Z,65.83
2019-02-02T18:45:43.012Z,65.27
2019-02-02T18:48:12.238Z,60.57
2019-02-02T18:50:41.691Z,58.30
2019-02-02T18:53:12.044Z,57.87
2019-02-02T18:55:56.872Z,59.47
2019-02-02T18:58:26.137Z,63.20
2019-02-02T19:00:55.454Z,65.57
2019-02-02T19:03:24.748Z,65.17
2019-02-02T19:05:54.201Z,63.97
2019-02-02T19:08:23.605Z,66.60
2019-02-02T19:10:52.964Z,63.93
2019-02-02T19:13:22.301Z,68.33
2019-02-02T19:15:51.728Z,67.33
2019-02-02T19:18:21.059Z,68.40
2019-02-02T19:20:50.425Z,67.87
2019-02-02T19:23:25.332Z,65.60
2019-02-02T19:25:50.685Z,63.13
2019-02-02T19:28:20.088Z,62.33
2019-02-02T19:30:49.356Z,59.47
2019-02-02T19:33:18.699Z,57.13
2019-02-02T19:35:48.166Z,59.67
2019-02-02T19:38:17.756Z,56.60
2019-02-02T19:40:47.150Z,54.40
2019-02-02T19:43:16.420Z,52.80
2019-02-02T19:45:45.649Z,54.10
2019-02-02T19:48:14.972Z,53.10
2019-02-02T19:50:44.246Z,54.60
2019-02-02T19:53:13.554Z,55.67
2019-02-02T19:55:42.882Z,52.53
2019-02-02T19:58:12.309Z,56.93
2019-02-02T20:00:41.600Z,50.30
2019-02-02T20:03:10.918Z,50.47
2019-02-02T20:05:41.529Z,49.17
2019-02-02T20:08:10.890Z,47.63
2019-02-02T20:10:40.200Z,45.90
2019-02-02T20:13:09.563Z,66.17
2019-02-02T20:15:38.798Z,43.60
2019-02-02T20:18:10.318Z,44.77
2019-02-02T20:20:39.194Z,42.90
2019-02-02T20:23:08.438Z,43.10
2019-02-02T20:25:37.719Z,48.83
2019-02-02T20:28:06.994Z,45.83
2019-02-02T20:30:36.533Z,43.23
2019-02-02T20:33:06.186Z,84.70
2019-02-02T20:35:41.876Z,82.40
2019-02-02T20:38:06.503Z,85.33
2019-02-02T20:40:35.876Z,44.63
2019-02-02T20:43:05.073Z,63.07
2019-02-02T20:45:35.560Z,48.60
2019-02-02T20:48:05.319Z,46.50
2019-02-02T20:50:34.683Z,44.90
2019-02-02T20:53:04.075Z,53.00
2019-02-02T20:55:36.604Z,44.60
2019-02-02T20:58:06.696Z,44.90
2019-02-02T21:00:36.355Z,45.80
2019-02-02T21:03:05.980Z,42.43
2019-02-02T21:05:35.390Z,44.03
2019-02-02T21:08:05.506Z,41.77
2019-02-02T21:10:34.802Z,43.30
2019-02-02T21:13:04.519Z,44.97
2019-02-02T21:15:33.858Z,44.63
2019-02-02T21:18:03.191Z,44.90
2019-02-02T21:20:32.822Z,44.37
2019-02-02T21:23:02.196Z,49.87
2019-02-02T21:25:31.614Z,44.53
2019-02-02T21:28:00.973Z,44.33
2019-02-02T21:30:32.503Z,43.60
2019-02-02T21:33:01.859Z,44.93
2019-02-02T21:35:31.162Z,46.27
2019-02-02T21:38:00.595Z,44.33
2019-02-02T21:40:31.871Z,45.07
2019-02-02T21:43:01.258Z,41.57
2019-02-02T21:45:30.641Z,44.90
2019-02-02T21:47:59.940Z,44.03
2019-02-02T21:50:29.259Z,47.65
2019-02-02T21:52:58.508Z,43.97
2019-02-02T21:55:28.666Z,44.00
2019-02-02T21:57:58.139Z,43.37
2019-02-02T22:00:30.108Z,42.87
2019-02-02T22:02:59.528Z,43.23
2019-02-02T22:05:28.745Z,43.17
2019-02-02T22:07:58.061Z,43.10
2019-02-02T22:10:27.311Z,42.80
2019-02-02T22:12:56.971Z,43.23
2019-02-02T22:15:26.387Z,41.73
2019-02-02T22:17:55.784Z,44.23
2019-02-02T22:20:25.109Z,43.07
2019-02-02T22:22:54.422Z,44.37
2019-02-02T22:25:28.190Z,45.33
2019-02-02T22:27:57.491Z,90.03
2019-02-02T22:30:29.280Z,46.03
2019-02-02T22:32:58.655Z,43.93
2019-02-02T22:35:27.967Z,45.70
2019-02-02T22:37:57.769Z,45.43
2019-02-02T22:40:27.672Z,42.90
2019-02-02T22:42:57.099Z,42.63
2019-02-02T22:45:26.379Z,61.10
2019-02-02T22:47:55.670Z,45.43
2019-02-02T22:50:26.234Z,43.03
2019-02-02T22:52:55.794Z,43.10
2019-02-02T22:55:25.113Z,54.37
2019-02-02T22:57:54.725Z,44.07
2019-02-02T23:00:54.922Z,41.50
2019-02-02T23:03:27.955Z,40.80
2019-02-02T23:06:53.519Z,41.00
2019-02-02T23:09:54.560Z,41.30
2019-02-02T23:12:49.308Z,39.87
2019-02-02T23:16:14.899Z,38.77
2019-02-02T23:18:46.746Z,41.10
2019-02-02T23:21:15.267Z,40.47
2019-02-02T23:23:44.595Z,40.77
2019-02-02T23:26:13.916Z,39.53
2019-02-02T23:28:43.383Z,39.43
2019-02-02T23:31:12.723Z,38.13
2019-02-02T23:33:42.408Z,39.27
2019-02-02T23:36:11.684Z,39.17
2019-02-02T23:38:41.044Z,40.30
2019-02-02T23:41:10.275Z,41.80
2019-02-02T23:43:39.604Z,39.10
2019-02-02T23:46:08.842Z,39.73
2019-02-02T23:48:38.098Z,41.63
2019-02-02T23:51:07.516Z,41.07
2019-02-02T23:53:36.871Z,42.30
2019-02-02T23:56:06.379Z,41.07
2019-02-02T23:58:35.763Z,41.93
